sensor_id;sensor_type;location;lat;lon;timestamp;pressure;altitude;pressure_sealevel;temperature;humidity
2785;BME280;57944;48.722;9.316;2024-01-15T00:00:15;97051.75;;;-3.51;100.00
2785;BME280;57944;48.722;9.316;2024-01-15T00:02:48;97058.78;;;-3.66;100.00
2785;BME280;57944;48.722;9.316;2024-01-15T00:05:18;97063.72;;;-3.76;100.00
2785;BME280;57944;48.722;9.316;2024-01-15T00:07:49;97046.31;;;-3.66;100.00
2785;BME280;57944;48.722;9.316;2024-01-15T00:10:20;97033.78;;;-3.65;100.00
2785;BME280;57944;48.722;9.316;2024-01-15T00:12:50;97031.81;;;-3.61;100.00
2785;BME280;57944;48.722;9.316;2024-01-15T00:15:23;97029.38;;;-3.42;100.00
2785;BME280;57944;48.722;9.316;2024-01-15T00:17:56;97026.09;;;-3.42;100.00
2785;BME280;57944;48.722;9.316;2024-01-15T00:20:27;97029.47;;;-3.53;100.00
2785;BME280;57944;48.722;9.316;2024-01-15T00:22:57;97035.75;;;-3.58;100.00
2785;BME280;57944;48.722;9.316;2024-01-15T00:25:28;97036.28;;;-3.55;100.00
2785;BME280;57944;48.722;9.316;2024-01-15T00:27:59;97033.63;;;-3.63;100.00
2785;BME280;57944;48.722;9.316;2024-01-15T00:30:33;97038.34;;;-3.60;100.00
2785;BME280;57944;48.722;9.316;2024-01-15T00:33:04;97031.50;;;-3.68;100.00
2785;BME280;57944;48.722;9.316;2024-01-15T00:35:35;97028.75;;;-3.74;100.00
2785;BME280;57944;48.722;9.316;2024-01-15T00:38:08;97036.72;;;-3.80;100.00
2785;BME280;57944;48.722;9.316;2024-01-15T00:40:39;97031.28;;;-3.95;100.00
2785;BME280;57944;48.722;9.316;2024-01-15T00:43:09;97031.13;;;-4.03;100.00
2785;BME280;57944;48.722;9.316;2024-01-15T00:45:43;97023.50;;;-4.12;100.00
2785;BME280;57944;48.722;9.316;2024-01-15T00:48:14;97024.28;;;-4.32;100.00
2785;BME280;57944;48.722;9.316;2024-01-15T00:50:44;97031.00;;;-4.44;100.00
2785;BME280;57944;48.722;9.316;2024-01-15T00:53:15;97035.81;;;-4.52;100.00
2785;BME280;57944;48.722;9.316;2024-01-15T00:55:46;97028.47;;;-4.54;100.00
2785;BME280;57944;48.722;9.316;2024-01-15T00:58:17;97036.41;;;-4.39;100.00
2785;BME280;57944;48.722;9.316;2024-01-15T01:00:50;97031.13;;;-4.24;100.00
2785;BME280;57944;48.722;9.316;2024-01-15T01:03:21;97032.16;;;-4.06;100.00
2785;BME280;57944;48.722;9.316;2024-01-15T01:05:51;97028.56;;;-3.92;100.00
2785;BME280;57944;48.722;9.316;2024-01-15T01:08:22;97027.91;;;-3.85;100.00
2785;BME280;57944;48.722;9.316;2024-01-15T01:10:53;97016.81;;;-3.80;100.00
2785;BME280;57944;48.722;9.316;2024-01-15T01:13:23;97014.81;;;-3.87;100.00
2785;BME280;57944;48.722;9.316;2024-01-15T01:15:56;97020.41;;;-3.94;100.00
2785;BME280;57944;48.722;9.316;2024-01-15T01:18:27;97020.06;;;-3.90;100.00
2785;BME280;57944;48.722;9.316;2024-01-15T01:20:58;97021.53;;;-3.77;100.00
2785;BME280;57944;48.722;9.316;2024-01-15T01:23:29;97026.13;;;-3.73;100.00
2785;BME280;57944;48.722;9.316;2024-01-15T01:25:59;97023.97;;;-3.56;100.00
2785;BME280;57944;48.722;9.316;2024-01-15T01:28:30;97027.16;;;-3.35;100.00
2785;BME280;57944;48.722;9.316;2024-01-15T01:31:03;97032.56;;;-3.20;100.00
2785;BME280;57944;48.722;9.316;2024-01-15T01:33:34;97024.31;;;-3.11;100.00
2785;BME280;57944;48.722;9.316;2024-01-15T01:36:08;97023.41;;;-3.00;100.00
2785;BME280;57944;48.722;9.316;2024-01-15T01:38:40;97016.34;;;-2.95;100.00
2785;BME280;57944;48.722;9.316;2024-01-15T01:41:11;97012.53;;;-2.89;100.00
2785;BME280;57944;48.722;9.316;2024-01-15T01:43:44;97018.53;;;-2.82;100.00
2785;BME280;57944;48.722;9.316;2024-01-15T01:46:17;97023.66;;;-2.74;100.00
2785;BME280;57944;48.722;9.316;2024-01-15T01:48:48;97024.44;;;-2.64;100.00
2785;BME280;57944;48.722;9.316;2024-01-15T01:51:20;97023.38;;;-2.52;100.00
2785;BME280;57944;48.722;9.316;2024-01-15T01:53:52;97034.25;;;-2.43;100.00
2785;BME280;57944;48.722;9.316;2024-01-15T01:56:24;97027.69;;;-2.34;100.00
2785;BME280;57944;48.722;9.316;2024-01-15T01:58:54;97025.84;;;-2.32;100.00
2785;BME280;57944;48.722;9.316;2024-01-15T02:01:32;97027.44;;;-2.31;100.00
2785;BME280;57944;48.722;9.316;2024-01-15T02:04:04;97029.13;;;-2.22;100.00
2785;BME280;57944;48.722;9.316;2024-01-15T02:06:35;97015.03;;;-2.23;100.00
2785;BME280;57944;48.722;9.316;2024-01-15T02:09:05;97014.25;;;-2.14;100.00
2785;BME280;57944;48.722;9.316;2024-01-15T02:11:38;97012.38;;;-2.12;100.00
2785;BME280;57944;48.722;9.316;2024-01-15T02:14:09;97013.59;;;-2.06;100.00
2785;BME280;57944;48.722;9.316;2024-01-15T02:16:42;97015.81;;;-2.03;100.00
2785;BME280;57944;48.722;9.316;2024-01-15T02:19:15;97007.88;;;-1.98;100.00
2785;BME280;57944;48.722;9.316;2024-01-15T02:21:47;97002.34;;;-1.92;100.00
2785;BME280;57944;48.722;9.316;2024-01-15T02:24:20;97006.03;;;-1.96;100.00
2785;BME280;57944;48.722;9.316;2024-01-15T02:26:51;97010.56;;;-2.10;100.00
2785;BME280;57944;48.722;9.316;2024-01-15T02:29:22;97010.16;;;-2.05;100.00
2785;BME280;57944;48.722;9.316;2024-01-15T02:31:52;97011.09;;;-2.06;100.00
2785;BME280;57944;48.722;9.316;2024-01-15T02:34:23;97011.09;;;-2.16;100.00
2785;BME280;57944;48.722;9.316;2024-01-15T02:36:54;97007.56;;;-2.13;100.00
2785;BME280;57944;48.722;9.316;2024-01-15T02:39:27;97003.72;;;-2.08;100.00
2785;BME280;57944;48.722;9.316;2024-01-15T02:41:58;97014.69;;;-2.28;100.00
2785;BME280;57944;48.722;9.316;2024-01-15T02:44:29;97010.88;;;-2.32;100.00
2785;BME280;57944;48.722;9.316;2024-01-15T02:46:59;97007.44;;;-2.21;100.00
2785;BME280;57944;48.722;9.316;2024-01-15T02:49:30;97009.94;;;-2.21;100.00
2785;BME280;57944;48.722;9.316;2024-01-15T02:52:01;97011.66;;;-2.32;100.00
2785;BME280;57944;48.722;9.316;2024-01-15T02:54:35;96997.22;;;-2.38;100.00
2785;BME280;57944;48.722;9.316;2024-01-15T02:57:05;96998.81;;;-2.47;100.00
2785;BME280;57944;48.722;9.316;2024-01-15T02:59:36;96997.41;;;-2.59;100.00
2785;BME280;57944;48.722;9.316;2024-01-15T03:02:07;96998.59;;;-2.73;100.00
2785;BME280;57944;48.722;9.316;2024-01-15T03:04:42;96990.47;;;-2.84;100.00
2785;BME280;57944;48.722;9.316;2024-01-15T03:07:13;96984.19;;;-3.08;100.00
2785;BME280;57944;48.722;9.316;2024-01-15T03:09:46;96986.28;;;-3.23;100.00
2785;BME280;57944;48.722;9.316;2024-01-15T03:12:17;96980.22;;;-3.40;100.00
2785;BME280;57944;48.722;9.316;2024-01-15T03:14:48;96981.91;;;-3.50;100.00
2785;BME280;57944;48.722;9.316;2024-01-15T03:17:18;96986.31;;;-3.63;100.00
2785;BME280;57944;48.722;9.316;2024-01-15T03:19:49;96980.25;;;-3.80;100.00
2785;BME280;57944;48.722;9.316;2024-01-15T03:22:20;96984.78;;;-3.95;100.00
2785;BME280;57944;48.722;9.316;2024-01-15T03:24:53;96983.44;;;-4.09;100.00
2785;BME280;57944;48.722;9.316;2024-01-15T03:27:24;96974.47;;;-4.21;100.00
2785;BME280;57944;48.722;9.316;2024-01-15T03:29:54;96978.91;;;-4.24;100.00
2785;BME280;57944;48.722;9.316;2024-01-15T03:32:25;96975.22;;;-4.30;100.00
2785;BME280;57944;48.722;9.316;2024-01-15T03:34:55;96968.78;;;-4.33;100.00
2785;BME280;57944;48.722;9.316;2024-01-15T03:37:26;96972.69;;;-4.40;100.00
2785;BME280;57944;48.722;9.316;2024-01-15T03:40:00;96963.69;;;-4.31;100.00
2785;BME280;57944;48.722;9.316;2024-01-15T03:42:30;96961.31;;;-4.33;100.00
2785;BME280;57944;48.722;9.316;2024-01-15T03:45:01;96963.81;;;-4.33;100.00
2785;BME280;57944;48.722;9.316;2024-01-15T03:47:32;96961.84;;;-4.29;100.00
2785;BME280;57944;48.722;9.316;2024-01-15T03:50:03;96962.66;;;-4.29;100.00
2785;BME280;57944;48.722;9.316;2024-01-15T03:52:34;96962.91;;;-4.32;100.00
2785;BME280;57944;48.722;9.316;2024-01-15T03:55:10;96957.44;;;-4.25;100.00
2785;BME280;57944;48.722;9.316;2024-01-15T03:57:41;96967.13;;;-4.22;100.00
2785;BME280;57944;48.722;9.316;2024-01-15T04:00:13;96962.06;;;-4.11;100.00
2785;BME280;57944;48.722;9.316;2024-01-15T04:02:45;96955.03;;;-4.06;100.00
2785;BME280;57944;48.722;9.316;2024-01-15T04:05:16;96948.91;;;-3.92;100.00
2785;BME280;57944;48.722;9.316;2024-01-15T04:07:46;96946.84;;;-3.77;100.00
2785;BME280;57944;48.722;9.316;2024-01-15T04:10:19;96949.22;;;-3.66;100.00
2785;BME280;57944;48.722;9.316;2024-01-15T04:12:50;96947.66;;;-3.67;100.00
2785;BME280;57944;48.722;9.316;2024-01-15T04:15:21;96945.34;;;-3.59;100.00
2785;BME280;57944;48.722;9.316;2024-01-15T04:17:52;96936.16;;;-3.49;100.00
2785;BME280;57944;48.722;9.316;2024-01-15T04:20:23;96940.22;;;-3.48;100.00
2785;BME280;57944;48.722;9.316;2024-01-15T04:22:54;96938.66;;;-3.29;100.00
2785;BME280;57944;48.722;9.316;2024-01-15T04:25:27;96946.53;;;-3.24;100.00
2785;BME280;57944;48.722;9.316;2024-01-15T04:27:57;96944.06;;;-3.15;100.00
2785;BME280;57944;48.722;9.316;2024-01-15T04:30:28;96942.06;;;-3.11;100.00
2785;BME280;57944;48.722;9.316;2024-01-15T04:32:59;96937.34;;;-3.14;100.00
2785;BME280;57944;48.722;9.316;2024-01-15T04:35:31;96925.28;;;-3.09;100.00
2785;BME280;57944;48.722;9.316;2024-01-15T04:38:01;96926.19;;;-3.10;100.00
2785;BME280;57944;48.722;9.316;2024-01-15T04:40:34;96940.88;;;-2.97;100.00
2785;BME280;57944;48.722;9.316;2024-01-15T04:43:05;96936.28;;;-2.82;100.00
2785;BME280;57944;48.722;9.316;2024-01-15T04:45:36;96941.91;;;-2.80;100.00
2785;BME280;57944;48.722;9.316;2024-01-15T04:48:07;96930.59;;;-2.65;100.00
2785;BME280;57944;48.722;9.316;2024-01-15T04:50:38;96931.88;;;-2.51;100.00
2785;BME280;57944;48.722;9.316;2024-01-15T04:53:09;96938.13;;;-2.37;100.00
2785;BME280;57944;48.722;9.316;2024-01-15T04:55:42;96933.13;;;-2.28;100.00
2785;BME280;57944;48.722;9.316;2024-01-15T04:58:13;96932.81;;;-2.15;100.00
2785;BME280;57944;48.722;9.316;2024-01-15T05:00:44;96928.84;;;-2.08;100.00
2785;BME280;57944;48.722;9.316;2024-01-15T05:03:14;96921.81;;;-1.94;100.00
2785;BME280;57944;48.722;9.316;2024-01-15T05:05:45;96933.88;;;-1.90;100.00
2785;BME280;57944;48.722;9.316;2024-01-15T05:08:16;96931.38;;;-1.90;100.00
2785;BME280;57944;48.722;9.316;2024-01-15T05:10:50;96930.56;;;-1.81;100.00
2785;BME280;57944;48.722;9.316;2024-01-15T05:13:21;96929.00;;;-1.64;100.00
2785;BME280;57944;48.722;9.316;2024-01-15T05:15:51;96917.78;;;-1.60;100.00
2785;BME280;57944;48.722;9.316;2024-01-15T05:18:22;96915.16;;;-1.58;100.00
2785;BME280;57944;48.722;9.316;2024-01-15T05:20:53;96915.09;;;-1.48;100.00
2785;BME280;57944;48.722;9.316;2024-01-15T05:23:23;96896.03;;;-1.49;100.00
2785;BME280;57944;48.722;9.316;2024-01-15T05:25:56;96892.84;;;-1.42;100.00
2785;BME280;57944;48.722;9.316;2024-01-15T05:28:27;96909.31;;;-1.49;100.00
2785;BME280;57944;48.722;9.316;2024-01-15T05:30:58;96896.31;;;-1.52;100.00
2785;BME280;57944;48.722;9.316;2024-01-15T05:33:29;96903.03;;;-1.53;100.00
2785;BME280;57944;48.722;9.316;2024-01-15T05:35:59;96908.25;;;-1.46;100.00
2785;BME280;57944;48.722;9.316;2024-01-15T05:38:30;96905.88;;;-1.48;100.00
2785;BME280;57944;48.722;9.316;2024-01-15T05:41:04;96905.63;;;-1.45;100.00
2785;BME280;57944;48.722;9.316;2024-01-15T05:43:35;96909.03;;;-1.46;100.00
2785;BME280;57944;48.722;9.316;2024-01-15T05:46:05;96895.03;;;-1.39;100.00
2785;BME280;57944;48.722;9.316;2024-01-15T05:48:36;96894.03;;;-1.28;100.00
2785;BME280;57944;48.722;9.316;2024-01-15T05:51:07;96887.81;;;-1.24;100.00
2785;BME280;57944;48.722;9.316;2024-01-15T05:53:38;96900.38;;;-1.16;100.00
2785;BME280;57944;48.722;9.316;2024-01-15T05:56:13;96898.44;;;-1.04;100.00
2785;BME280;57944;48.722;9.316;2024-01-15T05:58:43;96890.50;;;-1.17;100.00
2785;BME280;57944;48.722;9.316;2024-01-15T06:01:14;96883.47;;;-1.22;100.00
2785;BME280;57944;48.722;9.316;2024-01-15T06:03:45;96877.59;;;-1.13;100.00
2785;BME280;57944;48.722;9.316;2024-01-15T06:06:16;96884.31;;;-1.13;100.00
2785;BME280;57944;48.722;9.316;2024-01-15T06:08:46;96890.38;;;-1.16;100.00
2785;BME280;57944;48.722;9.316;2024-01-15T06:11:20;96888.09;;;-1.27;100.00
2785;BME280;57944;48.722;9.316;2024-01-15T06:13:50;96888.81;;;-1.17;100.00
2785;BME280;57944;48.722;9.316;2024-01-15T06:16:21;96889.38;;;-1.23;100.00
2785;BME280;57944;48.722;9.316;2024-01-15T06:18:51;96894.38;;;-1.23;100.00
2785;BME280;57944;48.722;9.316;2024-01-15T06:21:22;96888.88;;;-1.08;100.00
2785;BME280;57944;48.722;9.316;2024-01-15T06:23:53;96887.94;;;-1.07;100.00
2785;BME280;57944;48.722;9.316;2024-01-15T06:26:26;96896.44;;;-1.18;100.00
2785;BME280;57944;48.722;9.316;2024-01-15T06:28:57;96894.00;;;-1.10;100.00
2785;BME280;57944;48.722;9.316;2024-01-15T06:31:28;96894.59;;;-1.16;100.00
2785;BME280;57944;48.722;9.316;2024-01-15T06:33:59;96884.78;;;-1.09;100.00
2785;BME280;57944;48.722;9.316;2024-01-15T06:36:30;96884.38;;;-0.79;100.00
2785;BME280;57944;48.722;9.316;2024-01-15T06:39:00;96880.38;;;-0.90;100.00
2785;BME280;57944;48.722;9.316;2024-01-15T06:41:34;96880.50;;;-0.99;100.00
2785;BME280;57944;48.722;9.316;2024-01-15T06:44:09;96877.69;;;-0.96;100.00
2785;BME280;57944;48.722;9.316;2024-01-15T06:46:43;96879.41;;;-0.97;100.00
2785;BME280;57944;48.722;9.316;2024-01-15T06:49:13;96876.47;;;-0.92;100.00
2785;BME280;57944;48.722;9.316;2024-01-15T06:51:44;96869.47;;;-0.88;100.00
2785;BME280;57944;48.722;9.316;2024-01-15T06:54:16;96872.50;;;-1.03;100.00
2785;BME280;57944;48.722;9.316;2024-01-15T06:56:49;96868.22;;;-1.10;100.00
2785;BME280;57944;48.722;9.316;2024-01-15T06:59:20;96873.34;;;-0.94;100.00
2785;BME280;57944;48.722;9.316;2024-01-15T07:01:51;96868.78;;;-0.99;100.00
2785;BME280;57944;48.722;9.316;2024-01-15T07:04:22;96863.03;;;-0.91;100.00
2785;BME280;57944;48.722;9.316;2024-01-15T07:06:53;96862.06;;;-0.98;100.00
2785;BME280;57944;48.722;9.316;2024-01-15T07:09:23;96854.91;;;-0.93;100.00
2785;BME280;57944;48.722;9.316;2024-01-15T07:11:57;96856.19;;;-0.89;100.00
2785;BME280;57944;48.722;9.316;2024-01-15T07:14:27;96855.91;;;-0.86;100.00
2785;BME280;57944;48.722;9.316;2024-01-15T07:16:58;96855.13;;;-0.78;100.00
2785;BME280;57944;48.722;9.316;2024-01-15T07:19:29;96857.84;;;-0.72;100.00
2785;BME280;57944;48.722;9.316;2024-01-15T07:21:59;96854.06;;;-0.76;100.00
2785;BME280;57944;48.722;9.316;2024-01-15T07:24:30;96849.91;;;-0.93;100.00
2785;BME280;57944;48.722;9.316;2024-01-15T07:27:04;96863.69;;;-0.89;100.00
2785;BME280;57944;48.722;9.316;2024-01-15T07:29:36;96853.03;;;-0.91;100.00
2785;BME280;57944;48.722;9.316;2024-01-15T07:32:07;96860.91;;;-0.86;100.00
2785;BME280;57944;48.722;9.316;2024-01-15T07:34:38;96859.69;;;-0.74;100.00
2785;BME280;57944;48.722;9.316;2024-01-15T07:37:09;96876.22;;;-0.81;100.00
2785;BME280;57944;48.722;9.316;2024-01-15T07:39:39;96865.00;;;-0.77;100.00
2785;BME280;57944;48.722;9.316;2024-01-15T07:42:15;96874.06;;;-0.76;100.00
2785;BME280;57944;48.722;9.316;2024-01-15T07:44:46;96868.31;;;-0.68;100.00
2785;BME280;57944;48.722;9.316;2024-01-15T07:47:16;96860.59;;;-0.49;100.00
2785;BME280;57944;48.722;9.316;2024-01-15T07:49:47;96856.72;;;-0.43;100.00
2785;BME280;57944;48.722;9.316;2024-01-15T07:52:18;96867.72;;;-0.36;100.00
2785;BME280;57944;48.722;9.316;2024-01-15T07:54:48;96861.31;;;-0.30;100.00
2785;BME280;57944;48.722;9.316;2024-01-15T07:57:22;96862.56;;;-0.26;100.00
2785;BME280;57944;48.722;9.316;2024-01-15T07:59:53;96864.59;;;-0.30;100.00
2785;BME280;57944;48.722;9.316;2024-01-15T08:02:23;96882.69;;;-0.44;100.00
2785;BME280;57944;48.722;9.316;2024-01-15T08:04:54;96877.38;;;-0.41;100.00
2785;BME280;57944;48.722;9.316;2024-01-15T08:07:26;96883.13;;;-0.49;100.00
2785;BME280;57944;48.722;9.316;2024-01-15T08:09:57;96884.28;;;-0.35;100.00
2785;BME280;57944;48.722;9.316;2024-01-15T08:12:30;96887.50;;;-0.16;100.00
2785;BME280;57944;48.722;9.316;2024-01-15T08:15:01;96887.97;;;-0.13;100.00
2785;BME280;57944;48.722;9.316;2024-01-15T08:17:32;96889.25;;;-0.01;100.00
2785;BME280;57944;48.722;9.316;2024-01-15T08:20:04;96887.84;;;0.05;100.00
2785;BME280;57944;48.722;9.316;2024-01-15T08:22:35;96889.78;;;0.11;100.00
2785;BME280;57944;48.722;9.316;2024-01-15T08:25:06;96885.03;;;0.08;100.00
2785;BME280;57944;48.722;9.316;2024-01-15T08:27:39;96887.56;;;0.16;100.00
2785;BME280;57944;48.722;9.316;2024-01-15T08:30:11;96886.50;;;0.27;100.00
2785;BME280;57944;48.722;9.316;2024-01-15T08:32:42;96878.06;;;0.20;100.00
2785;BME280;57944;48.722;9.316;2024-01-15T08:35:13;96887.75;;;0.15;100.00
2785;BME280;57944;48.722;9.316;2024-01-15T08:37:44;96887.25;;;0.19;100.00
2785;BME280;57944;48.722;9.316;2024-01-15T08:40:14;96885.75;;;0.43;100.00
2785;BME280;57944;48.722;9.316;2024-01-15T08:42:48;96876.81;;;0.40;100.00
2785;BME280;57944;48.722;9.316;2024-01-15T08:45:19;96881.41;;;0.61;100.00
2785;BME280;57944;48.722;9.316;2024-01-15T08:47:50;96882.94;;;0.38;100.00
2785;BME280;57944;48.722;9.316;2024-01-15T08:50:21;96882.94;;;0.54;100.00
2785;BME280;57944;48.722;9.316;2024-01-15T08:52:52;96894.69;;;0.54;100.00
2785;BME280;57944;48.722;9.316;2024-01-15T08:55:23;96890.00;;;0.59;100.00
2785;BME280;57944;48.722;9.316;2024-01-15T08:57:56;96899.25;;;0.75;100.00
2785;BME280;57944;48.722;9.316;2024-01-15T09:00:24;96901.75;;;0.91;100.00
2785;BME280;57944;48.722;9.316;2024-01-15T09:02:55;96907.72;;;0.98;100.00
2785;BME280;57944;48.722;9.316;2024-01-15T09:05:26;96911.47;;;1.10;100.00
2785;BME280;57944;48.722;9.316;2024-01-15T09:07:57;96909.59;;;1.21;100.00
2785;BME280;57944;48.722;9.316;2024-01-15T09:10:27;96904.88;;;1.18;100.00
2785;BME280;57944;48.722;9.316;2024-01-15T09:13:01;96897.34;;;1.18;100.00
2785;BME280;57944;48.722;9.316;2024-01-15T09:15:32;96894.84;;;1.26;100.00
2785;BME280;57944;48.722;9.316;2024-01-15T09:18:03;96895.44;;;1.36;100.00
2785;BME280;57944;48.722;9.316;2024-01-15T09:20:35;96884.97;;;1.16;100.00
2785;BME280;57944;48.722;9.316;2024-01-15T09:23:06;96886.88;;;0.98;100.00
2785;BME280;57944;48.722;9.316;2024-01-15T09:25:36;96877.94;;;1.11;100.00
2785;BME280;57944;48.722;9.316;2024-01-15T09:28:10;96881.03;;;1.14;100.00
2785;BME280;57944;48.722;9.316;2024-01-15T09:30:41;96870.69;;;1.17;100.00
2785;BME280;57944;48.722;9.316;2024-01-15T09:33:13;96872.91;;;1.11;100.00
2785;BME280;57944;48.722;9.316;2024-01-15T09:35:44;96866.31;;;1.02;100.00
2785;BME280;57944;48.722;9.316;2024-01-15T09:38:15;96861.53;;;1.40;100.00
2785;BME280;57944;48.722;9.316;2024-01-15T09:40:47;96863.13;;;1.33;100.00
2785;BME280;57944;48.722;9.316;2024-01-15T09:43:20;96853.25;;;1.31;100.00
2785;BME280;57944;48.722;9.316;2024-01-15T09:45:52;96841.28;;;1.42;100.00
2785;BME280;57944;48.722;9.316;2024-01-15T09:48:23;96837.84;;;1.82;100.00
2785;BME280;57944;48.722;9.316;2024-01-15T09:50:54;96843.84;;;1.73;100.00
2785;BME280;57944;48.722;9.316;2024-01-15T09:53:26;96854.25;;;1.62;100.00
2785;BME280;57944;48.722;9.316;2024-01-15T09:55:58;96849.84;;;1.64;100.00
2785;BME280;57944;48.722;9.316;2024-01-15T09:58:32;96849.63;;;1.82;100.00
2785;BME280;57944;48.722;9.316;2024-01-15T10:01:04;96846.19;;;1.74;100.00
2785;BME280;57944;48.722;9.316;2024-01-15T10:03:35;96840.09;;;2.00;100.00
2785;BME280;57944;48.722;9.316;2024-01-15T10:06:07;96838.47;;;1.84;100.00
2785;BME280;57944;48.722;9.316;2024-01-15T10:08:39;96836.13;;;1.43;100.00
2785;BME280;57944;48.722;9.316;2024-01-15T10:11:10;96839.59;;;1.42;100.00
2785;BME280;57944;48.722;9.316;2024-01-15T10:13:44;96840.84;;;1.38;100.00
2785;BME280;57944;48.722;9.316;2024-01-15T10:16:17;96840.47;;;1.58;100.00
2785;BME280;57944;48.722;9.316;2024-01-15T10:18:49;96823.22;;;1.54;100.00
2785;BME280;57944;48.722;9.316;2024-01-15T10:21:21;96826.88;;;1.75;100.00
2785;BME280;57944;48.722;9.316;2024-01-15T10:23:52;96816.91;;;1.59;100.00
2785;BME280;57944;48.722;9.316;2024-01-15T10:26:25;96829.53;;;1.42;100.00
2785;BME280;57944;48.722;9.316;2024-01-15T10:28:59;96811.78;;;1.44;100.00
2785;BME280;57944;48.722;9.316;2024-01-15T10:31:29;96820.72;;;1.46;100.00
2785;BME280;57944;48.722;9.316;2024-01-15T10:34:10;96814.41;;;1.59;100.00
2785;BME280;57944;48.722;9.316;2024-01-15T10:36:46;96816.31;;;1.56;100.00
2785;BME280;57944;48.722;9.316;2024-01-15T10:39:23;96807.25;;;1.39;100.00
2785;BME280;57944;48.722;9.316;2024-01-15T10:41:53;96807.25;;;1.39;100.00
2785;BME280;57944;48.722;9.316;2024-01-15T10:44:27;96806.75;;;1.52;100.00
2785;BME280;57944;48.722;9.316;2024-01-15T10:46:57;96805.63;;;1.54;100.00
2785;BME280;57944;48.722;9.316;2024-01-15T10:49:28;96793.91;;;1.47;100.00
2785;BME280;57944;48.722;9.316;2024-01-15T10:52:01;96795.22;;;1.66;100.00
2785;BME280;57944;48.722;9.316;2024-01-15T10:54:32;96797.66;;;1.82;100.00
2785;BME280;57944;48.722;9.316;2024-01-15T10:57:05;96780.94;;;1.66;100.00
2785;BME280;57944;48.722;9.316;2024-01-15T10:59:38;96786.22;;;2.03;100.00
2785;BME280;57944;48.722;9.316;2024-01-15T11:02:09;96785.34;;;1.95;100.00
2785;BME280;57944;48.722;9.316;2024-01-15T11:04:40;96791.88;;;2.05;100.00
2785;BME280;57944;48.722;9.316;2024-01-15T11:07:11;96786.13;;;2.19;100.00
2785;BME280;57944;48.722;9.316;2024-01-15T11:09:43;96790.84;;;2.14;100.00
2785;BME280;57944;48.722;9.316;2024-01-15T11:12:17;96786.13;;;2.19;100.00
2785;BME280;57944;48.722;9.316;2024-01-15T11:14:50;96795.78;;;2.30;100.00
2785;BME280;57944;48.722;9.316;2024-01-15T11:17:22;96792.81;;;2.27;100.00
2785;BME280;57944;48.722;9.316;2024-01-15T11:19:54;96791.78;;;2.36;100.00
2785;BME280;57944;48.722;9.316;2024-01-15T11:22:47;96784.59;;;2.33;100.00
2785;BME280;57944;48.722;9.316;2024-01-15T11:25:19;96781.09;;;2.19;100.00
2785;BME280;57944;48.722;9.316;2024-01-15T11:27:51;96779.06;;;2.37;100.00
2785;BME280;57944;48.722;9.316;2024-01-15T11:30:26;96775.03;;;2.28;100.00
2785;BME280;57944;48.722;9.316;2024-01-15T11:32:56;96764.72;;;2.23;100.00
2785;BME280;57944;48.722;9.316;2024-01-15T11:35:48;96757.50;;;2.20;100.00
2785;BME280;57944;48.722;9.316;2024-01-15T11:38:29;96757.91;;;2.09;100.00
2785;BME280;57944;48.722;9.316;2024-01-15T11:40:59;96755.69;;;2.14;100.00
2785;BME280;57944;48.722;9.316;2024-01-15T11:43:30;96763.22;;;2.37;100.00
2785;BME280;57944;48.722;9.316;2024-01-15T11:46:04;96745.16;;;2.33;100.00
2785;BME280;57944;48.722;9.316;2024-01-15T11:48:43;96758.53;;;2.49;100.00
2785;BME280;57944;48.722;9.316;2024-01-15T11:51:18;96757.38;;;2.36;100.00
2785;BME280;57944;48.722;9.316;2024-01-15T11:53:51;96764.91;;;2.59;100.00
2785;BME280;57944;48.722;9.316;2024-01-15T11:56:26;96752.16;;;2.00;100.00
2785;BME280;57944;48.722;9.316;2024-01-15T11:58:56;96762.44;;;1.90;100.00
2785;BME280;57944;48.722;9.316;2024-01-15T12:01:34;96764.66;;;1.85;100.00
2785;BME280;57944;48.722;9.316;2024-01-15T12:04:05;96768.22;;;1.68;100.00
2785;BME280;57944;48.722;9.316;2024-01-15T12:06:35;96773.53;;;1.73;100.00
2785;BME280;57944;48.722;9.316;2024-01-15T12:09:07;96764.88;;;1.44;100.00
2785;BME280;57944;48.722;9.316;2024-01-15T12:11:40;96765.34;;;1.48;100.00
2785;BME280;57944;48.722;9.316;2024-01-15T12:14:13;96749.34;;;1.49;100.00
2785;BME280;57944;48.722;9.316;2024-01-15T12:16:47;96760.19;;;1.41;100.00
2785;BME280;57944;48.722;9.316;2024-01-15T12:19:17;96756.78;;;1.65;100.00
2785;BME280;57944;48.722;9.316;2024-01-15T12:21:51;96759.31;;;1.26;100.00
2785;BME280;57944;48.722;9.316;2024-01-15T12:24:22;96754.63;;;1.23;100.00
2785;BME280;57944;48.722;9.316;2024-01-15T12:26:52;96765.31;;;1.17;100.00
2785;BME280;57944;48.722;9.316;2024-01-15T12:29:23;96770.25;;;0.85;100.00
2785;BME280;57944;48.722;9.316;2024-01-15T12:31:56;96773.22;;;0.89;100.00
2785;BME280;57944;48.722;9.316;2024-01-15T12:34:29;96778.28;;;0.81;100.00
2785;BME280;57944;48.722;9.316;2024-01-15T12:37:01;96781.28;;;0.60;100.00
2785;BME280;57944;48.722;9.316;2024-01-15T12:39:33;96773.28;;;0.56;100.00
2785;BME280;57944;48.722;9.316;2024-01-15T12:42:04;96779.84;;;0.65;100.00
2785;BME280;57944;48.722;9.316;2024-01-15T12:44:36;96779.56;;;0.28;100.00
2785;BME280;57944;48.722;9.316;2024-01-15T12:47:09;96783.31;;;0.24;100.00
2785;BME280;57944;48.722;9.316;2024-01-15T12:49:41;96786.75;;;-0.02;100.00
2785;BME280;57944;48.722;9.316;2024-01-15T12:52:12;96785.78;;;-0.01;100.00
2785;BME280;57944;48.722;9.316;2024-01-15T12:54:42;96777.97;;;-0.06;100.00
2785;BME280;57944;48.722;9.316;2024-01-15T12:57:13;96787.34;;;-0.16;100.00
2785;BME280;57944;48.722;9.316;2024-01-15T12:59:44;96787.19;;;-0.15;100.00
2785;BME280;57944;48.722;9.316;2024-01-15T13:02:17;96781.38;;;-0.24;100.00
2785;BME280;57944;48.722;9.316;2024-01-15T13:04:48;96781.72;;;-0.10;100.00
2785;BME280;57944;48.722;9.316;2024-01-15T13:07:19;96789.69;;;-0.15;100.00
2785;BME280;57944;48.722;9.316;2024-01-15T13:09:49;96785.00;;;-0.18;100.00
2785;BME280;57944;48.722;9.316;2024-01-15T13:12:21;96779.06;;;-0.09;100.00
2785;BME280;57944;48.722;9.316;2024-01-15T13:14:52;96785.78;;;-0.01;100.00
2785;BME280;57944;48.722;9.316;2024-01-15T13:17:26;96791.00;;;0.06;100.00
2785;BME280;57944;48.722;9.316;2024-01-15T13:19:56;96795.69;;;0.01;100.00
2785;BME280;57944;48.722;9.316;2024-01-15T13:22:28;96799.88;;;0.08;100.00
2785;BME280;57944;48.722;9.316;2024-01-15T13:25:00;96799.56;;;-0.13;100.00
2785;BME280;57944;48.722;9.316;2024-01-15T13:27:31;96798.91;;;-0.15;100.00